createdAt,value
2023-04-16T00:02:25.923Z,100115.78
2023-04-16T00:05:28.623Z,100104.53
2023-04-16T00:08:31.478Z,100111.34
2023-04-16T00:11:33.987Z,100099.97
2023-04-16T00:14:36.621Z,100090.25
2023-04-16T00:17:41.760Z,100097.00
2023-04-16T00:20:44.550Z,100107.22
2023-04-16T00:23:47.203Z,100103.44
2023-04-16T00:26:50.793Z,100096.22
2023-04-16T00:29:53.767Z,100105.66
2023-04-16T00:32:56.857Z,100108.78
2023-04-16T00:35:59.587Z,100115.13
2023-04-16T00:39:02.166Z,100108.78
2023-04-16T00:42:05.841Z,100112.84
2023-04-16T00:45:08.772Z,100106.09
2023-04-16T00:48:11.166Z,100097.16
2023-04-16T00:51:13.624Z,100089.78
2023-04-16T00:54:16.346Z,100095.75
2023-04-16T00:57:21.123Z,100100.81
2023-04-16T01:00:23.988Z,100099.38
2023-04-16T01:03:39.783Z,100112.44
2023-04-16T01:06:42.545Z,100109.34
2023-04-16T01:09:44.952Z,100114.69
2023-04-16T01:12:47.365Z,100113.91
2023-04-16T01:15:49.884Z,100120.88
2023-04-16T01:18:52.608Z,100122.03
2023-04-16T01:21:55.379Z,100115.00
2023-04-16T01:24:58.483Z,100112.44
2023-04-16T01:28:01.554Z,100115.06
2023-04-16T01:31:05.030Z,100121.28
2023-04-16T01:34:30.607Z,100122.38
2023-04-16T01:37:34.437Z,100125.09
2023-04-16T01:40:38.709Z,100113.94
2023-04-16T01:43:42.579Z,100121.28
2023-04-16T01:46:45.330Z,100113.28
2023-04-16T01:49:48.526Z,100116.22
2023-04-16T01:52:51.633Z,100112.66
2023-04-16T01:55:54.270Z,100120.31
2023-04-16T01:58:57.273Z,100128.06
2023-04-16T02:02:04.743Z,100128.19
2023-04-16T02:05:08.984Z,100131.91
2023-04-16T02:08:11.940Z,100136.88
2023-04-16T02:11:14.521Z,100144.56
2023-04-16T02:14:17.675Z,100142.22
2023-04-16T02:17:20.560Z,100143.13
2023-04-16T02:20:26.274Z,100139.50
2023-04-16T02:23:34.407Z,100145.09
2023-04-16T02:26:37.138Z,100138.78
2023-04-16T02:29:44.608Z,100134.22
2023-04-16T02:32:51.166Z,100135.72
2023-04-16T02:35:55.230Z,100132.34
2023-04-16T02:38:58.382Z,100119.78
2023-04-16T02:42:02.842Z,100126.66
2023-04-16T02:45:07.429Z,100119.16
2023-04-16T02:48:10.593Z,100118.78
2023-04-16T02:51:13.165Z,100131.19
2023-04-16T02:54:15.791Z,100137.13
2023-04-16T02:57:18.518Z,100138.25
2023-04-16T03:00:21.125Z,100137.06
2023-04-16T03:03:24.275Z,100131.94
2023-04-16T03:06:27.158Z,100128.19
2023-04-16T03:09:30.558Z,100126.28
2023-04-16T03:12:33.886Z,100131.63
2023-04-16T03:15:37.122Z,100135.41
2023-04-16T03:18:39.974Z,100138.16
2023-04-16T03:21:43.128Z,100150.34
2023-04-16T03:24:45.536Z,100155.56
2023-04-16T03:27:48.109Z,100167.03
2023-04-16T03:30:52.920Z,100168.53
2023-04-16T03:33:56.126Z,100173.94
2023-04-16T03:36:58.922Z,100181.50
2023-04-16T03:40:01.777Z,100186.72
2023-04-16T03:43:04.825Z,100188.22
2023-04-16T03:46:07.374Z,100189.78
2023-04-16T03:49:10.196Z,100197.50
2023-04-16T03:52:13.240Z,100192.19
2023-04-16T03:55:16.358Z,100189.47
2023-04-16T03:58:19.771Z,100189.63
2023-04-16T04:01:23.307Z,100192.38
2023-04-16T04:04:27.482Z,100191.81
2023-04-16T04:07:30.447Z,100190.06
2023-04-16T04:10:33.805Z,100195.88
2023-04-16T04:13:37.451Z,100195.19
2023-04-16T04:16:40.348Z,100201.28
2023-04-16T04:19:54.314Z,100209.25
2023-04-16T04:23:04.552Z,100215.13
2023-04-16T04:26:07.838Z,100222.38
2023-04-16T04:29:11.270Z,100223.38
2023-04-16T04:32:14.442Z,100222.81
2023-04-16T04:35:17.464Z,100222.06
2023-04-16T04:38:22.240Z,100221.13
2023-04-16T04:41:27.197Z,100227.88
2023-04-16T04:44:30.185Z,100225.81
2023-04-16T04:47:33.551Z,100231.75
2023-04-16T04:50:37.212Z,100223.66
2023-04-16T04:53:40.194Z,100230.78
2023-04-16T04:56:45.605Z,100231.81
2023-04-16T04:59:49.382Z,100240.56
2023-04-16T05:02:52.725Z,100234.56
2023-04-16T05:05:56.167Z,100233.94
2023-04-16T05:08:58.815Z,100221.16
2023-04-16T05:12:01.355Z,100221.97
2023-04-16T05:15:05.308Z,100225.00
2023-04-16T05:18:07.840Z,100221.69
2023-04-16T05:21:10.496Z,100230.22
2023-04-16T05:24:14.868Z,100235.75
2023-04-16T05:27:17.502Z,100244.59
2023-04-16T05:30:20.605Z,100253.00
2023-04-16T05:33:23.302Z,100259.19
2023-04-16T05:36:25.744Z,100265.50
2023-04-16T05:39:28.508Z,100261.69
2023-04-16T05:42:31.230Z,100262.22
2023-04-16T05:45:39.618Z,100267.44
2023-04-16T05:48:42.699Z,100268.50
2023-04-16T05:51:45.513Z,100272.19
2023-04-16T05:54:48.032Z,100274.69
2023-04-16T05:57:51.078Z,100282.22
2023-04-16T06:00:53.452Z,100276.22
2023-04-16T06:03:56.103Z,100269.19
2023-04-16T06:06:58.915Z,100270.06
2023-04-16T06:10:01.467Z,100266.88
2023-04-16T06:13:04.576Z,100270.81
2023-04-16T06:16:07.364Z,100265.22
2023-04-16T06:19:10.048Z,100268.97
2023-04-16T06:22:12.684Z,100263.22
2023-04-16T06:25:18.022Z,100270.56
2023-04-16T06:28:21.033Z,100262.91
2023-04-16T06:31:24.683Z,100254.19
2023-04-16T06:34:28.084Z,100252.66
2023-04-16T06:37:30.403Z,100258.28
2023-04-16T06:40:37.082Z,100249.16
2023-04-16T06:43:39.909Z,100254.09
2023-04-16T06:46:42.418Z,100250.66
2023-04-16T06:49:44.952Z,100254.97
2023-04-16T06:52:47.403Z,100249.28
2023-04-16T06:55:49.913Z,100260.81
2023-04-16T06:58:52.456Z,100259.06
2023-04-16T07:01:54.972Z,100259.81
2023-04-16T07:04:57.510Z,100260.41
2023-04-16T07:08:00.079Z,100259.50
2023-04-16T07:11:02.771Z,100263.44
2023-04-16T07:14:05.378Z,100253.53
2023-04-16T07:17:07.855Z,100258.88
2023-04-16T07:20:10.905Z,100254.00
2023-04-16T07:23:13.496Z,100251.16
2023-04-16T07:26:16.181Z,100253.69
2023-04-16T07:29:18.561Z,100255.34
2023-04-16T07:32:22.767Z,100257.34
2023-04-16T07:35:25.498Z,100259.38
2023-04-16T07:38:28.269Z,100261.75
2023-04-16T07:41:31.140Z,100258.06
2023-04-16T07:44:33.597Z,100264.16
2023-04-16T07:47:36.269Z,100267.91
2023-04-16T07:50:39.225Z,100266.31
2023-04-16T07:53:43.506Z,100269.25
2023-04-16T07:56:46.230Z,100272.84
2023-04-16T07:59:48.686Z,100257.34
2023-04-16T08:02:51.271Z,100257.63
2023-04-16T08:05:53.732Z,100262.16
2023-04-16T08:08:56.596Z,100259.00
2023-04-16T08:12:00.823Z,100261.00
2023-04-16T08:15:12.460Z,100261.03
2023-04-16T08:18:15.751Z,100260.59
2023-04-16T08:21:18.402Z,100264.25
2023-04-16T08:24:21.594Z,100277.41
2023-04-16T08:27:23.804Z,100273.28
2023-04-16T08:30:26.114Z,100278.41
2023-04-16T08:33:28.603Z,100276.72
2023-04-16T08:36:31.978Z,100285.41
2023-04-16T08:39:35.336Z,100281.84
2023-04-16T08:42:45.187Z,100286.47
2023-04-16T08:45:47.858Z,100278.66
2023-04-16T08:48:50.332Z,100277.69
2023-04-16T08:51:54.386Z,100289.28
2023-04-16T08:55:15.399Z,100285.06
2023-04-16T08:58:22.579Z,100286.75
2023-04-16T09:01:25.651Z,100292.81
2023-04-16T09:04:28.809Z,100297.16
2023-04-16T09:07:31.434Z,100298.91
2023-04-16T09:10:36.778Z,100300.50
2023-04-16T09:13:39.455Z,100309.13
2023-04-16T09:16:42.272Z,100311.50
2023-04-16T09:19:45.854Z,100317.34
2023-04-16T09:22:48.591Z,100315.72
2023-04-16T09:25:51.345Z,100307.84
2023-04-16T09:28:53.699Z,100321.97
2023-04-16T09:32:04.397Z,100317.53
2023-04-16T09:35:07.059Z,100328.03
2023-04-16T09:38:09.559Z,100327.28
2023-04-16T09:41:11.955Z,100325.66
2023-04-16T09:44:14.439Z,100325.75
2023-04-16T09:47:17.104Z,100322.50
2023-04-16T09:50:19.988Z,100314.97
2023-04-16T09:53:29.095Z,100309.03
2023-04-16T09:56:31.553Z,100316.28
2023-04-16T09:59:36.009Z,100312.75
2023-04-16T10:02:42.707Z,100303.91
2023-04-16T10:05:45.433Z,100297.53
2023-04-16T10:08:50.250Z,100295.56
2023-04-16T10:11:52.923Z,100291.94
2023-04-16T10:14:55.394Z,100289.16
2023-04-16T10:17:58.048Z,100280.03
2023-04-16T10:21:00.679Z,100278.53
2023-04-16T10:24:03.181Z,100280.47
2023-04-16T10:27:05.855Z,100284.06
2023-04-16T10:30:09.359Z,100281.84
2023-04-16T10:33:11.867Z,100264.69
2023-04-16T10:36:16.343Z,100274.38
2023-04-16T10:39:23.614Z,100285.25
2023-04-16T10:42:26.236Z,100272.16
2023-04-16T10:45:32.847Z,100267.97
2023-04-16T10:48:46.712Z,100266.63
2023-04-16T10:51:58.740Z,100257.72
2023-04-16T10:55:01.447Z,100260.56
2023-04-16T10:58:06.731Z,100260.16
2023-04-16T11:01:16.859Z,100252.88
2023-04-16T11:04:19.549Z,100263.06
2023-04-16T11:07:32.377Z,100256.16
2023-04-16T11:10:39.411Z,100251.22
2023-04-16T11:13:48.288Z,100253.28
2023-04-16T11:16:50.763Z,100254.25
2023-04-16T11:19:53.485Z,100251.34
2023-04-16T11:22:57.354Z,100253.59
2023-04-16T11:26:00.245Z,100246.28
2023-04-16T11:29:04.875Z,100247.34
2023-04-16T11:32:07.582Z,100241.09
2023-04-16T11:35:14.712Z,100253.66
2023-04-16T11:38:18.519Z,100247.69
2023-04-16T11:41:21.974Z,100245.97
2023-04-16T11:44:25.573Z,100245.16
2023-04-16T11:47:29.903Z,100249.56
2023-04-16T11:50:32.934Z,100242.50
2023-04-16T11:53:35.502Z,100249.63
2023-04-16T11:56:37.915Z,100244.94
2023-04-16T12:00:02.099Z,100242.81
2023-04-16T12:03:15.229Z,100236.56
2023-04-16T12:06:17.591Z,100236.34
2023-04-16T12:09:26.167Z,100227.34
2023-04-16T12:12:31.166Z,100236.50
2023-04-16T12:15:47.765Z,100232.13
2023-04-16T12:19:01.710Z,100235.94
2023-04-16T12:22:04.117Z,100220.34
2023-04-16T12:25:13.978Z,100224.75
2023-04-16T12:28:36.826Z,100227.16
2023-04-16T12:31:39.386Z,100222.75
2023-04-16T12:34:50.716Z,100226.09
2023-04-16T12:37:53.195Z,100212.72
2023-04-16T12:40:57.381Z,100218.19
2023-04-16T12:44:12.051Z,100211.50
2023-04-16T12:47:14.504Z,100202.91
2023-04-16T12:50:16.999Z,100208.50
2023-04-16T12:53:19.458Z,100207.47
2023-04-16T12:56:22.106Z,100199.69
2023-04-16T12:59:24.728Z,100202.09
2023-04-16T13:02:27.414Z,100201.59
2023-04-16T13:05:30.236Z,100203.44
2023-04-16T13:08:32.664Z,100197.78
2023-04-16T13:11:35.184Z,100195.00
2023-04-16T13:14:37.961Z,100191.69
2023-04-16T13:17:40.612Z,100186.38
2023-04-16T13:20:43.914Z,100182.84
2023-04-16T13:23:46.447Z,100182.03
2023-04-16T13:26:48.996Z,100178.34
2023-04-16T13:29:51.726Z,100177.56
2023-04-16T13:32:54.145Z,100175.00
2023-04-16T13:35:56.617Z,100170.56
2023-04-16T13:38:59.592Z,100165.09
2023-04-16T13:42:02.814Z,100164.00
2023-04-16T13:45:05.782Z,100170.78
2023-04-16T13:48:08.354Z,100165.38
2023-04-16T13:51:10.862Z,100166.50
2023-04-16T13:54:13.513Z,100167.53
2023-04-16T13:57:16.177Z,100160.34
2023-04-16T14:00:18.740Z,100157.69
2023-04-16T14:03:21.881Z,100153.94
2023-04-16T14:06:24.459Z,100160.22
2023-04-16T14:09:27.383Z,100170.81
2023-04-16T14:12:30.048Z,100162.25
2023-04-16T14:15:32.401Z,100165.09
2023-04-16T14:18:35.868Z,100160.75
2023-04-16T14:21:38.516Z,100164.25
2023-04-16T14:24:41.167Z,100164.22
2023-04-16T14:27:43.836Z,100170.47
2023-04-16T14:30:46.460Z,100150.66
2023-04-16T14:33:48.852Z,100148.59
2023-04-16T14:36:52.679Z,100151.13
2023-04-16T14:39:55.375Z,100144.03
2023-04-16T14:42:57.888Z,100141.75
2023-04-16T14:46:00.444Z,100141.44
2023-04-16T14:49:02.696Z,100141.47
2023-04-16T14:52:05.893Z,100149.16
2023-04-16T14:55:08.514Z,100139.47
2023-04-16T14:58:11.048Z,100131.94
2023-04-16T15:01:14.950Z,100129.63
2023-04-16T15:04:17.977Z,100129.16
2023-04-16T15:07:21.889Z,100133.69
2023-04-16T15:10:24.496Z,100130.09
2023-04-16T15:13:33.743Z,100128.19
2023-04-16T15:16:36.476Z,100129.03
2023-04-16T15:19:39.008Z,100129.53
2023-04-16T15:22:41.572Z,100128.41
2023-04-16T15:25:44.249Z,100121.09
2023-04-16T15:28:46.688Z,100120.47
2023-04-16T15:31:49.297Z,100125.66
2023-04-16T15:34:51.888Z,100127.09
2023-04-16T15:37:55.604Z,100121.34
2023-04-16T15:41:00.062Z,100126.25
2023-04-16T15:44:02.987Z,100128.56
2023-04-16T15:47:08.256Z,100127.44
2023-04-16T15:50:10.953Z,100127.53
2023-04-16T15:53:13.530Z,100128.91
2023-04-16T15:56:16.239Z,100135.69
2023-04-16T15:59:18.832Z,100143.19
2023-04-16T16:02:21.547Z,100136.34
2023-04-16T16:05:24.086Z,100138.25
2023-04-16T16:08:26.695Z,100140.03
2023-04-16T16:11:29.057Z,100146.69
2023-04-16T16:14:31.493Z,100152.13
2023-04-16T16:17:33.901Z,100151.56
2023-04-16T16:20:36.751Z,100150.72
2023-04-16T16:23:39.275Z,100149.94
2023-04-16T16:26:41.942Z,100147.34
2023-04-16T16:29:44.564Z,100149.28
2023-04-16T16:32:47.551Z,100155.66
2023-04-16T16:35:50.556Z,100155.59
2023-04-16T16:38:53.586Z,100155.59
2023-04-16T16:41:57.016Z,100145.09
2023-04-16T16:44:59.513Z,100152.16
2023-04-16T16:48:04.096Z,100154.00
2023-04-16T16:51:09.820Z,100154.91
2023-04-16T16:54:12.318Z,100151.47
2023-04-16T16:57:15.516Z,100162.94
2023-04-16T17:00:20.141Z,100161.25
2023-04-16T17:03:22.835Z,100157.75
2023-04-16T17:06:25.381Z,100156.88
2023-04-16T17:09:27.938Z,100164.84
2023-04-16T17:12:30.704Z,100154.28
2023-04-16T17:15:33.477Z,100166.59
2023-04-16T17:18:36.135Z,100173.66
2023-04-16T17:21:38.654Z,100173.69
2023-04-16T17:24:41.289Z,100173.69
2023-04-16T17:27:43.813Z,100177.22
2023-04-16T17:30:50.562Z,100171.91
2023-04-16T17:33:53.147Z,100180.69
2023-04-16T17:36:55.566Z,100173.66
2023-04-16T17:39:58.039Z,100179.84
2023-04-16T17:43:00.483Z,100183.34
2023-04-16T17:46:02.959Z,100190.34
2023-04-16T17:49:05.843Z,100185.09
2023-04-16T17:52:08.596Z,100191.22
2023-04-16T17:55:11.222Z,100190.34
2023-04-16T17:58:13.837Z,100198.25
2023-04-16T18:01:16.342Z,100198.25
2023-04-16T18:04:19.415Z,100202.66
2023-04-16T18:07:22.350Z,100203.53
2023-04-16T18:10:25.272Z,100201.75
2023-04-16T18:13:28.015Z,100204.34
2023-04-16T18:16:30.621Z,100191.16
2023-04-16T18:19:33.132Z,100199.03
2023-04-16T18:22:35.872Z,100199.84
2023-04-16T18:25:40.215Z,100216.47
2023-04-16T18:28:42.913Z,100210.25
2023-04-16T18:31:45.379Z,100217.25
2023-04-16T18:34:47.850Z,100212.75
2023-04-16T18:37:50.630Z,100207.47
2023-04-16T18:40:53.505Z,100210.06
2023-04-16T18:43:56.169Z,100206.53
2023-04-16T18:46:58.584Z,100195.16
2023-04-16T18:50:01.048Z,100206.53
2023-04-16T18:53:03.498Z,100191.69
2023-04-16T18:56:06.213Z,100193.41
2023-04-16T18:59:08.907Z,100199.47
2023-04-16T19:02:11.400Z,100209.91
2023-04-16T19:05:14.058Z,100205.53
2023-04-16T19:08:16.828Z,100205.47
2023-04-16T19:11:19.333Z,100202.03
2023-04-16T19:14:21.935Z,100209.91
2023-04-16T19:17:24.482Z,100197.56
2023-04-16T19:20:27.240Z,100188.81
2023-04-16T19:23:29.754Z,100202.72
2023-04-16T19:26:32.127Z,100200.91
2023-04-16T19:29:34.990Z,100200.81
2023-04-16T19:32:37.565Z,100197.25
2023-04-16T19:35:42.788Z,100198.94
2023-04-16T19:38:45.404Z,100198.97
2023-04-16T19:41:48.063Z,100203.38
2023-04-16T19:44:50.472Z,100197.16
2023-04-16T19:47:52.916Z,100180.47
2023-04-16T19:50:55.465Z,100187.44
2023-04-16T19:53:58.923Z,100190.06
2023-04-16T19:57:01.671Z,100187.34
2023-04-16T20:00:07.893Z,100185.59
2023-04-16T20:03:10.318Z,100189.94
2023-04-16T20:06:12.886Z,100183.00
2023-04-16T20:09:15.347Z,100191.81
2023-04-16T20:12:19.478Z,100191.69
2023-04-16T20:15:22.232Z,100187.31
2023-04-16T20:18:27.632Z,100187.31
2023-04-16T20:21:31.793Z,100188.25
2023-04-16T20:24:34.394Z,100178.56
2023-04-16T20:27:36.962Z,100179.41
2023-04-16T20:30:40.146Z,100176.78
2023-04-16T20:33:42.517Z,100175.03
2023-04-16T20:36:45.717Z,100182.03
2023-04-16T20:39:50.118Z,100177.63
2023-04-16T20:42:52.666Z,100181.13
2023-04-16T20:45:55.474Z,100174.09
2023-04-16T20:48:57.939Z,100171.44
2023-04-16T20:52:02.201Z,100176.72
2023-04-16T20:55:04.980Z,100173.16
2023-04-16T20:58:07.374Z,100169.69
2023-04-16T21:01:09.971Z,100189.75
2023-04-16T21:04:12.511Z,100179.25
2023-04-16T21:07:15.622Z,100183.63
2023-04-16T21:10:20.506Z,100160.91
2023-04-16T21:13:23.140Z,100154.84
2023-04-16T21:16:25.694Z,100146.88
2023-04-16T21:19:28.942Z,100152.13
2023-04-16T21:22:31.353Z,100148.63
2023-04-16T21:25:33.891Z,100161.69
2023-04-16T21:28:36.331Z,100152.00
2023-04-16T21:31:39.013Z,100152.81
2023-04-16T21:34:41.516Z,100153.69
2023-04-16T21:37:44.151Z,100152.81
2023-04-16T21:40:50.725Z,100164.13
2023-04-16T21:43:53.222Z,100158.78
2023-04-16T21:46:58.356Z,100158.78
2023-04-16T21:50:00.943Z,100160.56
2023-04-16T21:53:04.530Z,100156.97
2023-04-16T21:56:07.533Z,100149.91
2023-04-16T21:59:09.997Z,100156.13
2023-04-16T22:02:12.619Z,100157.75
2023-04-16T22:05:15.591Z,100148.88
2023-04-16T22:08:24.923Z,100152.38
2023-04-16T22:11:27.796Z,100142.66
2023-04-16T22:14:31.904Z,100147.03
2023-04-16T22:17:34.483Z,100143.53
2023-04-16T22:20:39.111Z,100140.88
2023-04-16T22:23:41.794Z,100130.31
2023-04-16T22:26:44.231Z,100129.41
2023-04-16T22:29:46.710Z,100139.94
2023-04-16T22:32:49.126Z,100131.22
2023-04-16T22:35:51.601Z,100130.25
2023-04-16T22:38:56.982Z,100129.38
2023-04-16T22:41:59.417Z,100130.09
2023-04-16T22:45:01.905Z,100122.19
2023-04-16T22:48:04.870Z,100120.38
2023-04-16T22:51:10.833Z,100130.00
2023-04-16T22:54:14.033Z,100123.91
2023-04-16T22:57:21.130Z,100119.53
2023-04-16T23:00:24.900Z,100117.78
2023-04-16T23:03:27.563Z,100113.44
2023-04-16T23:06:31.712Z,100117.78
2023-04-16T23:09:34.355Z,100115.97
2023-04-16T23:12:39.474Z,100109.03
2023-04-16T23:15:41.961Z,100108.22
2023-04-16T23:18:44.725Z,100099.53
2023-04-16T23:21:47.223Z,100101.28
2023-04-16T23:24:50.934Z,100096.03
2023-04-16T23:27:53.444Z,100096.00
2023-04-16T23:30:56.495Z,100097.78
2023-04-16T23:33:59.157Z,100095.16
2023-04-16T23:37:01.646Z,100097.75
2023-04-16T23:40:05.002Z,100088.09
2023-04-16T23:43:07.466Z,100096.88
2023-04-16T23:46:10.175Z,100091.56
2023-04-16T23:49:12.895Z,100088.03
2023-04-16T23:52:15.569Z,100088.97
2023-04-16T23:55:18.186Z,100081.97
2023-04-16T23:58:20.598Z,100087.22
